< < Back
Terminal Aerodrome Forecast


Current Version              Previous Versions:   1  2  3  4  5  6  7  8  9  

Terminal Aerodrome Forecast

250
FTUS44 KBMX 010123 AAA
TAFMGM
TAF AMD
KMGM 010123Z 0101/0124 19004KT P6SM -TSRA FEW045 SCT060CB OVC150
     FM010200 20003KT P6SM SCT250
     FM011100 21002KT 5SM BR OVC019
     FM011300 27005KT P6SM SCT250
     FM011800 25007KT P6SM VCTS SCT050CB BKN250=

Latest METAR

629
SAUS80 KWBC 011500 RRC
MTRMGM
METAR KMGM 011453Z 26005KT 10SM SCT018 28/22 A3009 RMK AO2 SLP186
T02780222 51011


USA.gov is the U.S. government's official web portal to all federal, state and local government web resources and services.